Time;durP1;ratioP1;P1;durP2;ratioP2;P2;SDS_P1;SDS_P2;PMS_P1;PMS_P2;Temp;Humidity;BMP_temperature;BMP_pressure;BME280_temperature;BME280_humidity;BME280_pressure;Samples;Min_cycle;Max_cycle;Signal;HPM_P1;HPM_P2
2023/09/19 00:00:19;;;;;;;6.18;2.78;;;;;16.50;95938.00;;;;8336327;28;20240;-67
2023/09/19 00:04:28;;;;;;;5.72;3.25;;;;;16.50;95938.00;;;;8335773;28;20221;-67
2023/09/19 00:08:33;;;;;;;8.40;3.30;;;;;16.60;95936.00;;;;8334421;28;20194;-67
2023/09/19 00:12:36;;;;;;;7.88;3.22;;;;;16.70;95935.00;;;;8332142;28;20236;-67
2023/09/19 00:16:42;;;;;;;5.93;3.20;;;;;16.70;95928.00;;;;8334101;28;20225;-67
2023/09/19 00:20:51;;;;;;;7.70;3.42;;;;;16.80;95935.00;;;;8334978;28;20197;-67
2023/09/19 00:24:57;;;;;;;6.50;3.67;;;;;16.90;95937.00;;;;8334458;28;20233;-67
2023/09/19 00:29:04;;;;;;;7.13;2.95;;;;;16.90;95940.00;;;;8334387;28;20278;-67
2023/09/19 00:33:16;;;;;;;5.13;3.00;;;;;16.90;95926.00;;;;8334554;28;20524;-67
2023/09/19 00:37:21;;;;;;;4.80;2.80;;;;;16.90;95937.00;;;;8334330;28;20232;-67
2023/09/19 00:41:30;;;;;;;5.40;3.28;;;;;16.80;95924.00;;;;8334875;28;20581;-67
2023/09/19 00:45:38;;;;;;;4.32;3.10;;;;;16.80;95926.00;;;;8333926;28;20198;-67
2023/09/19 00:49:44;;;;;;;9.27;3.30;;;;;16.80;95934.00;;;;8334962;28;20244;-67
2023/09/19 00:53:50;;;;;;;6.38;3.60;;;;;16.80;95942.00;;;;8334340;28;20484;-67
2023/09/19 00:57:54;;;;;;;6.03;2.95;;;;;16.70;95946.00;;;;8334487;28;20548;-67
2023/09/19 01:02:00;;;;;;;7.05;3.47;;;;;16.80;95942.00;;;;8334043;28;20240;-66
2023/09/19 01:06:07;;;;;;;6.82;3.40;;;;;16.80;95939.00;;;;8334772;28;20657;-66
2023/09/19 01:10:15;;;;;;;7.53;3.60;;;;;16.90;95947.00;;;;8334046;28;20194;-66
2023/09/19 01:14:27;;;;;;;8.30;3.35;;;;;16.90;95947.00;;;;8333606;28;20217;-67
2023/09/19 01:18:41;;;;;;;7.38;3.53;;;;;16.90;95953.00;;;;8334163;28;20217;-67
2023/09/19 01:23:01;;;;;;;5.97;3.65;;;;;16.90;95948.00;;;;8333061;28;20240;-67
2023/09/19 01:27:25;;;;;;;7.60;3.67;;;;;17.00;95949.00;;;;8332442;28;20239;-67
2023/09/19 01:31:35;;;;;;;5.78;3.40;;;;;17.00;95952.00;;;;8333037;28;20189;-67
2023/09/19 01:35:39;;;;;;;7.32;3.22;;;;;17.00;95958.00;;;;8332791;28;20229;-67
2023/09/19 01:39:48;;;;;;;5.30;3.10;;;;;17.00;95963.00;;;;8332107;28;20214;-67
2023/09/19 01:43:53;;;;;;;6.95;3.40;;;;;17.00;95977.00;;;;8332860;28;20280;-67
2023/09/19 01:48:14;;;;;;;7.85;3.40;;;;;17.00;95973.00;;;;8332256;28;20284;-67
2023/09/19 01:52:22;;;;;;;5.95;3.47;;;;;17.00;95976.00;;;;8332973;28;20288;-67
2023/09/19 01:56:35;;;;;;;6.43;3.15;;;;;17.00;95970.00;;;;8332307;28;20233;-68
2023/09/19 02:00:45;;;;;;;5.50;3.50;;;;;17.00;95974.00;;;;8332179;28;20311;-67
2023/09/19 02:04:56;;;;;;;5.60;2.83;;;;;17.00;95970.00;;;;8332533;28;20236;-67
2023/09/19 02:09:00;;;;;;;4.32;2.90;;;;;17.10;95973.00;;;;8330878;28;20204;-68
2023/09/19 02:13:05;;;;;;;6.68;3.25;;;;;17.10;95964.00;;;;8332344;28;20586;-67
2023/09/19 02:17:11;;;;;;;6.25;3.55;;;;;17.10;95976.00;;;;8332066;28;20213;-67
2023/09/19 02:21:18;;;;;;;6.30;3.05;;;;;17.00;95978.00;;;;8331917;28;20239;-68
2023/09/19 02:25:21;;;;;;;5.10;2.95;;;;;17.00;95981.00;;;;8331746;28;20280;-68
2023/09/19 02:29:27;;;;;;;6.05;3.00;;;;;17.00;95977.00;;;;8347041;28;20661;-67
2023/09/19 02:33:32;;;;;;;9.32;3.05;;;;;17.00;95970.00;;;;8330562;28;20292;-68
2023/09/19 02:37:40;;;;;;;5.38;3.10;;;;;16.90;95971.00;;;;8330932;28;20213;-68
2023/09/19 02:41:46;;;;;;;9.80;3.10;;;;;17.00;95982.00;;;;8332031;28;20623;-68
2023/09/19 02:45:50;;;;;;;4.95;2.67;;;;;17.00;95981.00;;;;8331576;28;20232;-68
2023/09/19 02:49:55;;;;;;;3.60;3.00;;;;;17.00;95982.00;;;;8332124;28;20280;-67
2023/09/19 02:54:03;;;;;;;5.47;3.35;;;;;16.90;95995.00;;;;8332100;28;20701;-65
2023/09/19 02:58:11;;;;;;;5.82;2.95;;;;;16.90;95998.00;;;;8331675;28;20347;-66
2023/09/19 03:02:18;;;;;;;6.93;3.08;;;;;16.90;95998.00;;;;8365113;22;20237;-66
2023/09/19 03:06:21;;;;;;;3.38;2.67;;;;;16.90;96004.00;;;;8347963;28;20266;-66
2023/09/19 03:10:30;;;;;;;5.53;2.90;;;;;16.90;96003.00;;;;8351856;28;20255;-66
2023/09/19 03:14:36;;;;;;;3.22;2.63;;;;;16.90;96014.00;;;;8350292;28;20224;-66
2023/09/19 03:18:42;;;;;;;8.07;3.33;;;;;16.90;96016.00;;;;8351437;28;20227;-66
2023/09/19 03:22:45;;;;;;;5.53;2.53;;;;;16.90;96024.00;;;;8351809;28;20208;-66
2023/09/19 03:26:52;;;;;;;6.35;2.83;;;;;17.00;96024.00;;;;8352997;28;20518;-66
2023/09/19 03:31:01;;;;;;;5.38;2.60;;;;;17.00;96034.00;;;;8350561;28;20315;-66
2023/09/19 03:35:06;;;;;;;3.97;2.83;;;;;17.00;96031.00;;;;8352051;28;20197;-66
2023/09/19 03:39:10;;;;;;;5.93;2.70;;;;;17.00;96026.00;;;;8352450;28;20221;-66
2023/09/19 03:43:15;;;;;;;4.60;2.97;;;;;16.90;96027.00;;;;8352836;28;20203;-66
2023/09/19 03:47:22;;;;;;;3.28;2.60;;;;;16.90;96033.00;;;;8344553;28;20200;-66
2023/09/19 03:51:25;;;;;;;2.33;2.13;;;;;16.90;96034.00;;;;8352085;28;20288;-66
2023/09/19 03:55:30;;;;;;;4.18;2.28;;;;;16.90;96033.00;;;;8346929;28;20956;-65
2023/09/19 03:59:35;;;;;;;5.85;2.33;;;;;16.90;96030.00;;;;8349025;28;20266;-66
2023/09/19 04:03:47;;;;;;;2.47;2.28;;;;;16.90;96032.00;;;;8343700;28;20319;-66
2023/09/19 04:07:54;;;;;;;3.53;2.00;;;;;16.90;96037.00;;;;8345808;28;20295;-66
2023/09/19 04:12:08;;;;;;;4.20;2.28;;;;;16.90;96042.00;;;;8350326;28;20282;-66
2023/09/19 04:16:13;;;;;;;6.35;3.08;;;;;16.90;96042.00;;;;8344031;28;20300;-66
2023/09/19 04:20:22;;;;;;;6.78;2.40;;;;;16.90;96051.00;;;;8342709;28;20260;-65
2023/09/19 04:24:26;;;;;;;5.57;2.60;;;;;17.00;96051.00;;;;8340255;28;20232;-66
2023/09/19 04:28:32;;;;;;;2.97;2.38;;;;;16.90;96050.00;;;;8349815;28;20695;-67
2023/09/19 04:32:38;;;;;;;4.93;2.20;;;;;16.90;96046.00;;;;8346202;28;20648;-66
2023/09/19 04:36:41;;;;;;;3.78;2.10;;;;;16.90;96053.00;;;;8344384;28;20310;-67
2023/09/19 04:40:46;;;;;;;2.45;2.05;;;;;16.90;96060.00;;;;8336243;28;20247;-66
2023/09/19 04:44:53;;;;;;;3.78;2.28;;;;;16.90;96063.00;;;;8345385;28;20220;-66
2023/09/19 04:48:58;;;;;;;11.68;2.45;;;;;16.90;96074.00;;;;8346352;28;20193;-65
2023/09/19 04:53:03;;;;;;;2.50;2.28;;;;;16.90;96074.00;;;;8343968;28;20280;-65
2023/09/19 04:57:07;;;;;;;3.17;2.30;;;;;16.90;96076.00;;;;8347406;28;20701;-66
2023/09/19 05:01:12;;;;;;;2.90;2.53;;;;;17.00;96078.00;;;;8343408;28;20236;-66
2023/09/19 05:05:18;;;;;;;2.92;2.15;;;;;16.90;96079.00;;;;8344343;28;20904;-66
2023/09/19 05:09:24;;;;;;;4.15;2.10;;;;;17.00;96084.00;;;;8343678;28;21981;-66
2023/09/19 05:13:31;;;;;;;6.32;2.30;;;;;17.00;96082.00;;;;8344679;28;20266;-65
2023/09/19 05:17:34;;;;;;;4.38;2.28;;;;;17.00;96078.00;;;;8344258;28;20612;-65
2023/09/19 05:21:41;;;;;;;4.32;2.60;;;;;17.10;96088.00;;;;8342625;28;20274;-65
2023/09/19 05:25:44;;;;;;;5.93;2.13;;;;;17.00;96080.00;;;;8343940;28;20558;-66
2023/09/19 05:29:50;;;;;;;3.45;2.40;;;;;16.90;96088.00;;;;8344193;28;20215;-66
2023/09/19 05:33:54;;;;;;;2.53;2.00;;;;;16.90;96096.00;;;;8340616;28;20280;-66
2023/09/19 05:37:59;;;;;;;3.20;1.98;;;;;16.80;96091.00;;;;8343048;28;20208;-66
2023/09/19 05:42:04;;;;;;;4.93;2.17;;;;;16.70;96097.00;;;;8341757;28;20328;-65
2023/09/19 05:46:12;;;;;;;2.83;1.85;;;;;16.60;96099.00;;;;8345071;28;20284;-66
2023/09/19 05:50:16;;;;;;;3.22;1.90;;;;;16.50;96101.00;;;;8339917;28;20657;-67
2023/09/19 05:54:22;;;;;;;3.63;2.00;;;;;16.50;96097.00;;;;8341721;28;20208;-67
2023/09/19 05:58:27;;;;;;;6.05;2.08;;;;;16.50;96096.00;;;;8343287;28;20994;-67
2023/09/19 06:02:30;;;;;;;2.92;2.15;;;;;16.50;96104.00;;;;8298472;28;1187894;-67
2023/09/19 06:06:38;;;;;;;2.90;1.90;;;;;16.50;96114.00;;;;8344671;28;20290;-67
2023/09/19 06:10:43;;;;;;;4.85;2.03;;;;;16.80;96122.00;;;;8342500;28;20239;-67
2023/09/19 06:14:50;;;;;;;5.68;1.90;;;;;17.10;96119.00;;;;8342646;28;20201;-66
2023/09/19 06:18:54;;;;;;;3.33;1.80;;;;;17.30;96137.00;;;;8342623;28;20197;-67
2023/09/19 06:22:57;;;;;;;1.85;1.75;;;;;17.40;96138.00;;;;8334997;28;20197;-67
2023/09/19 06:27:08;;;;;;;1.80;1.70;;;;;17.50;96127.00;;;;8344501;28;20247;-66
2023/09/19 06:31:16;;;;;;;1.60;1.50;;;;;17.60;96138.00;;;;8343184;28;21114;-66
2023/09/19 06:35:20;;;;;;;1.73;1.63;;;;;17.70;96149.00;;;;8344864;28;20192;-65
2023/09/19 06:39:23;;;;;;;3.63;1.85;;;;;17.80;96147.00;;;;8342067;28;20244;-66
2023/09/19 06:43:28;;;;;;;3.47;1.73;;;;;17.80;96147.00;;;;8347327;28;20204;-66
2023/09/19 06:47:31;;;;;;;1.95;1.70;;;;;17.90;96149.00;;;;8346488;28;20573;-66
2023/09/19 06:51:36;;;;;;;1.63;1.30;;;;;18.10;96157.00;;;;8350620;28;20192;-66
2023/09/19 06:55:40;;;;;;;1.85;1.73;;;;;18.20;96159.00;;;;8347239;28;20196;-66
2023/09/19 06:59:45;;;;;;;3.42;1.60;;;;;18.30;96155.00;;;;8342997;28;20255;-67
2023/09/19 07:03:53;;;;;;;2.90;1.88;;;;;18.40;96165.00;;;;8345974;28;20282;-66
2023/09/19 07:07:58;;;;;;;5.60;1.70;;;;;18.40;96170.00;;;;8346051;28;20189;-66
2023/09/19 07:12:04;;;;;;;2.30;1.40;;;;;18.60;96176.00;;;;8346134;28;20854;-65
2023/09/19 07:16:13;;;;;;;1.75;1.65;;;;;18.80;96172.00;;;;8344433;28;20197;-66
2023/09/19 07:20:22;;;;;;;8.82;1.90;;;;;19.10;96175.00;;;;8345942;28;20303;-66
2023/09/19 07:24:28;;;;;;;4.93;1.75;;;;;19.00;96191.00;;;;8347653;28;20231;-67
2023/09/19 07:28:32;;;;;;;2.95;1.60;;;;;18.90;96180.00;;;;8344822;28;20197;-67
2023/09/19 07:32:40;;;;;;;3.67;1.73;;;;;18.90;96181.00;;;;8345152;28;20197;-67
2023/09/19 07:36:47;;;;;;;4.90;1.73;;;;;18.90;96182.00;;;;8343030;28;20193;-67
2023/09/19 07:40:51;;;;;;;5.18;1.77;;;;;19.10;96197.00;;;;8345974;28;20943;-67
2023/09/19 07:44:56;;;;;;;2.70;1.75;;;;;19.30;96196.00;;;;8348305;28;20201;-66
2023/09/19 07:49:04;;;;;;;1.63;1.52;;;;;19.40;96205.00;;;;8347005;28;20814;-66
2023/09/19 07:53:07;;;;;;;2.85;1.40;;;;;19.70;96208.00;;;;8345206;28;20231;-66
2023/09/19 07:57:11;;;;;;;3.42;1.42;;;;;19.80;96216.00;;;;8342147;28;20332;-67
2023/09/19 08:01:16;;;;;;;4.53;1.60;;;;;19.80;96217.00;;;;8342261;28;20229;-67
2023/09/19 08:05:22;;;;;;;1.65;1.55;;;;;19.70;96222.00;;;;8348677;28;20662;-67
2023/09/19 08:09:25;;;;;;;2.53;1.50;;;;;19.70;96222.00;;;;8345255;28;20197;-66
2023/09/19 08:13:31;;;;;;;3.15;1.98;;;;;19.80;96223.00;;;;8346637;28;20292;-66
2023/09/19 08:17:35;;;;;;;1.90;1.55;;;;;19.80;96227.00;;;;8345230;28;20979;-67
2023/09/19 08:21:47;;;;;;;1.50;1.40;;;;;20.10;96230.00;;;;8346894;28;20236;-68
2023/09/19 08:25:51;;;;;;;1.75;1.65;;;;;20.50;96234.00;;;;8343236;28;20829;-67
2023/09/19 08:29:54;;;;;;;1.67;1.50;;;;;20.70;96235.00;;;;8342412;28;20197;-68
2023/09/19 08:33:58;;;;;;;2.17;1.60;;;;;21.50;96237.00;;;;8344343;28;20211;-67
2023/09/19 08:38:04;;;;;;;1.88;1.70;;;;;21.50;96247.00;;;;8343752;28;20196;-68
2023/09/19 08:42:11;;;;;;;2.40;1.70;;;;;21.60;96242.00;;;;8342629;28;20278;-68
2023/09/19 08:46:17;;;;;;;2.13;1.65;;;;;21.60;96250.00;;;;8347409;28;20296;-68
2023/09/19 08:50:29;;;;;;;1.60;1.50;;;;;21.50;96265.00;;;;8347190;28;21094;-68
2023/09/19 08:54:39;;;;;;;1.50;1.40;;;;;21.10;96255.00;;;;8339662;28;20201;-67
2023/09/19 08:58:47;;;;;;;2.97;1.50;;;;;21.00;96266.00;;;;8337918;28;20223;-67
2023/09/19 09:02:51;;;;;;;2.53;1.55;;;;;21.10;96272.00;;;;8337752;28;20621;-64
2023/09/19 09:06:58;;;;;;;1.92;1.63;;;;;21.20;96275.00;;;;8340892;28;20200;-65
2023/09/19 09:11:07;;;;;;;2.47;1.75;;;;;21.30;96276.00;;;;8344292;28;20210;-65
2023/09/19 09:15:23;;;;;;;1.58;1.40;;;;;21.50;96278.00;;;;8345997;28;20267;-66
2023/09/19 09:19:26;;;;;;;1.92;1.60;;;;;21.30;96283.00;;;;8340242;28;20691;-65
2023/09/19 09:23:32;;;;;;;4.15;1.67;;;;;20.90;96269.00;;;;8343620;28;20290;-66
2023/09/19 09:27:36;;;;;;;1.73;1.63;;;;;20.80;96275.00;;;;8339661;28;20193;-67
2023/09/19 09:31:42;;;;;;;1.55;1.25;;;;;21.30;96296.00;;;;8343177;28;20304;-66
2023/09/19 09:35:56;;;;;;;2.03;1.50;;;;;21.50;96291.00;;;;8341635;28;20203;-66
2023/09/19 09:40:19;;;;;;;1.55;1.45;;;;;21.60;96305.00;;;;8344917;28;20200;-66
2023/09/19 09:44:24;;;;;;;1.45;1.35;;;;;21.80;96298.00;;;;8345587;28;20200;-67
2023/09/19 09:48:31;;;;;;;2.42;1.58;;;;;22.00;96304.00;;;;8343191;28;20625;-66
2023/09/19 09:52:46;;;;;;;2.03;1.40;;;;;22.10;96297.00;;;;8344464;28;20201;-66
2023/09/19 09:56:58;;;;;;;1.60;1.50;;;;;22.40;96299.00;;;;8345950;28;20196;-65
2023/09/19 10:01:08;;;;;;;1.55;1.42;;;;;22.70;96288.00;;;;8342962;28;20720;-66
2023/09/19 10:05:20;;;;;;;3.95;1.65;;;;;22.80;96291.00;;;;8344084;28;20555;-66
2023/09/19 10:09:36;;;;;;;1.80;1.70;;;;;22.90;96307.00;;;;8344753;28;20205;-66
2023/09/19 10:13:42;;;;;;;2.10;1.60;;;;;23.00;96308.00;;;;8341969;28;20307;-66
2023/09/19 10:17:49;;;;;;;1.60;1.50;;;;;23.50;96312.00;;;;8344948;28;20323;-66
2023/09/19 10:21:56;;;;;;;1.95;1.67;;;;;23.90;96318.00;;;;8338623;28;20229;-66
2023/09/19 10:26:09;;;;;;;2.08;1.88;;;;;23.50;96311.00;;;;8338485;28;21996;-67
2023/09/19 10:30:19;;;;;;;2.40;2.00;;;;;23.80;96309.00;;;;8338242;28;20204;-67
2023/09/19 10:34:26;;;;;;;2.00;1.80;;;;;23.90;96303.00;;;;8341310;28;20214;-67
2023/09/19 10:38:31;;;;;;;2.20;2.00;;;;;24.10;96307.00;;;;8339502;28;20673;-67
2023/09/19 10:42:38;;;;;;;2.25;1.63;;;;;24.40;96304.00;;;;8339268;28;20248;-67
2023/09/19 10:46:41;;;;;;;2.28;1.98;;;;;24.60;96307.00;;;;8339629;28;20280;-67
2023/09/19 10:50:51;;;;;;;3.25;2.17;;;;;24.50;96319.00;;;;8340405;28;20674;-67
2023/09/19 10:54:58;;;;;;;2.05;1.95;;;;;24.10;96317.00;;;;8337369;28;20208;-67
2023/09/19 10:59:12;;;;;;;3.30;2.17;;;;;23.90;96310.00;;;;8338735;28;20279;-67
2023/09/19 11:03:23;;;;;;;2.20;2.03;;;;;24.00;96317.00;;;;8337569;28;20232;-67
2023/09/19 11:07:30;;;;;;;2.05;1.83;;;;;23.90;96320.00;;;;8341106;28;20205;-66
2023/09/19 11:11:46;;;;;;;2.25;1.80;;;;;24.00;96308.00;;;;8339526;28;20235;-67
2023/09/19 11:16:07;;;;;;;3.30;2.30;;;;;23.80;96307.00;;;;8339752;28;20651;-66
2023/09/19 11:20:41;;;;;;;2.83;1.95;;;;;23.80;96306.00;;;;8340094;28;20204;-66
2023/09/19 11:24:46;;;;;;;3.85;2.05;;;;;24.00;96318.00;;;;8341329;28;20283;-67
2023/09/19 11:29:24;;;;;;;2.00;1.80;;;;;23.70;96316.00;;;;8350253;28;20284;-67
2023/09/19 11:33:31;;;;;;;3.55;2.20;;;;;23.70;96319.00;;;;8346692;28;20212;-67
2023/09/19 11:38:16;;;;;;;2.03;1.75;;;;;24.10;96306.00;;;;8347206;28;20201;-67
2023/09/19 11:42:45;;;;;;;2.97;2.00;;;;;24.00;96310.00;;;;8347558;28;20236;-67
2023/09/19 11:46:58;;;;;;;2.75;1.83;;;;;24.10;96310.00;;;;8342299;28;20227;-67
2023/09/19 11:51:07;;;;;;;2.47;1.95;;;;;24.30;96313.00;;;;8345371;28;20205;-63
2023/09/19 11:55:11;;;;;;;1.80;1.70;;;;;24.40;96304.00;;;;8347626;28;20254;-66
2023/09/19 11:59:22;;;;;;;1.60;1.50;;;;;24.60;96307.00;;;;8348292;28;20820;-67
2023/09/19 12:03:33;;;;;;;2.88;1.75;;;;;24.70;96309.00;;;;8343819;28;20954;-66
2023/09/19 12:07:48;;;;;;;1.90;1.80;;;;;24.50;96295.00;;;;8349854;28;20220;-66
2023/09/19 12:11:55;;;;;;;2.80;1.80;;;;;24.00;96305.00;;;;8344562;28;20490;-67
2023/09/19 12:16:00;;;;;;;1.88;1.73;;;;;23.80;96314.00;;;;8346696;28;20208;-67
2023/09/19 12:20:12;;;;;;;4.60;1.70;;;;;23.50;96319.00;;;;8346512;28;21024;-65
2023/09/19 12:24:19;;;;;;;3.15;2.00;;;;;23.30;96321.00;;;;8346116;28;20460;-67
2023/09/19 12:28:25;;;;;;;2.95;2.10;;;;;23.30;96305.00;;;;8347284;28;20304;-66
2023/09/19 12:32:40;;;;;;;4.03;2.00;;;;;23.10;96297.00;;;;8344980;28;20224;-66
2023/09/19 12:36:52;;;;;;;2.67;1.55;;;;;23.10;96290.00;;;;8342681;28;20197;-66
2023/09/19 12:40:56;;;;;;;2.50;1.40;;;;;23.20;96284.00;;;;8341173;28;20928;-66
2023/09/19 12:45:00;;;;;;;2.13;1.50;;;;;23.10;96286.00;;;;8334577;28;20485;-66
2023/09/19 12:49:19;;;;;;;1.95;1.50;;;;;23.00;96286.00;;;;8343033;28;20200;-66
2023/09/19 12:53:29;;;;;;;3.83;1.75;;;;;23.20;96285.00;;;;8339174;28;20663;-67
2023/09/19 12:57:34;;;;;;;1.65;1.55;;;;;23.60;96284.00;;;;8344070;28;20809;-67
2023/09/19 13:01:42;;;;;;;1.60;1.50;;;;;24.00;96281.00;;;;8339772;28;20275;-65
2023/09/19 13:05:57;;;;;;;2.28;1.63;;;;;24.00;96282.00;;;;8336427;28;20205;-66
2023/09/19 13:10:08;;;;;;;1.98;1.67;;;;;23.90;96281.00;;;;8337980;28;20782;-66
2023/09/19 13:14:19;;;;;;;2.05;1.60;;;;;23.90;96286.00;;;;8341527;28;20216;-65
2023/09/19 13:18:23;;;;;;;1.35;1.25;;;;;23.80;96274.00;;;;8341146;28;20244;-66
2023/09/19 13:22:42;;;;;;;1.52;1.40;;;;;23.80;96265.00;;;;8337585;28;20267;-66
2023/09/19 13:26:46;;;;;;;1.50;1.40;;;;;23.90;96273.00;;;;8336033;28;20259;-65
2023/09/19 13:30:49;;;;;;;3.80;2.08;;;;;23.90;96274.00;;;;8337571;28;20208;-66
2023/09/19 13:34:53;;;;;;;2.33;1.40;;;;;23.80;96268.00;;;;8336173;28;20287;-66
2023/09/19 13:38:58;;;;;;;1.40;1.30;;;;;23.70;96268.00;;;;8339387;28;20204;-66
2023/09/19 13:43:06;;;;;;;1.50;1.40;;;;;23.60;96267.00;;;;8341647;28;20220;-66
2023/09/19 13:47:13;;;;;;;1.55;1.45;;;;;23.60;96283.00;;;;8339517;28;20724;-66
2023/09/19 13:51:18;;;;;;;1.58;1.50;;;;;23.80;96275.00;;;;8337980;28;20324;-66
2023/09/19 13:55:26;;;;;;;5.72;1.73;;;;;24.00;96279.00;;;;8341571;28;20283;-65
2023/09/19 13:59:34;;;;;;;1.95;1.52;;;;;24.40;96279.00;;;;8340806;28;20193;-66
2023/09/19 14:03:38;;;;;;;1.70;1.60;;;;;24.80;96272.00;;;;8334419;28;20256;-68
2023/09/19 14:07:46;;;;;;;2.70;1.20;;;;;24.90;96267.00;;;;8335924;28;20331;-68
2023/09/19 14:11:54;;;;;;;2.55;1.50;;;;;25.00;96266.00;;;;8337104;28;20225;-69
2023/09/19 14:16:04;;;;;;;1.40;1.40;;;;;25.30;96264.00;;;;8339523;28;20901;-69
2023/09/19 14:20:12;;;;;;;1.63;1.52;;;;;25.50;96269.00;;;;8337021;28;20243;-69
2023/09/19 14:24:18;;;;;;;1.45;1.35;;;;;25.50;96255.00;;;;8333908;28;20339;-67
2023/09/19 14:28:29;;;;;;;1.52;1.40;;;;;25.30;96248.00;;;;8338679;28;20855;-69
2023/09/19 14:32:33;;;;;;;2.13;1.60;;;;;25.10;96252.00;;;;8335925;28;20201;-64
2023/09/19 14:36:39;;;;;;;1.83;1.50;;;;;25.20;96248.00;;;;8339234;28;20221;-65
2023/09/19 14:40:42;;;;;;;2.33;1.45;;;;;25.20;96238.00;;;;8342100;28;20232;-65
2023/09/19 14:44:50;;;;;;;2.10;1.58;;;;;25.10;96240.00;;;;8344078;28;20676;-66
2023/09/19 14:48:54;;;;;;;2.35;1.42;;;;;25.10;96211.00;;;;8341962;28;20288;-65
2023/09/19 14:53:01;;;;;;;1.88;1.60;;;;;24.80;96230.00;;;;8335118;28;20284;-65
2023/09/19 14:57:05;;;;;;;1.63;1.52;;;;;24.60;96234.00;;;;8339924;28;20213;-65
2023/09/19 15:01:11;;;;;;;1.60;1.60;;;;;24.50;96241.00;;;;8338263;28;20346;-65
2023/09/19 15:05:19;;;;;;;2.72;1.52;;;;;24.40;96244.00;;;;8337690;28;20673;-65
2023/09/19 15:09:27;;;;;;;2.58;1.80;;;;;24.40;96238.00;;;;8347382;28;20608;-65
2023/09/19 15:13:36;;;;;;;2.72;1.40;;;;;24.40;96232.00;;;;8343120;28;20207;-65
2023/09/19 15:17:41;;;;;;;1.73;1.30;;;;;24.20;96243.00;;;;8352031;28;20615;-65
2023/09/19 15:21:44;;;;;;;2.08;1.40;;;;;24.10;96236.00;;;;8342758;28;21001;-66
2023/09/19 15:25:51;;;;;;;1.58;1.48;;;;;24.10;96238.00;;;;8347805;28;20236;-66
2023/09/19 15:29:54;;;;;;;1.55;1.45;;;;;24.10;96229.00;;;;8352026;28;20193;-67
2023/09/19 15:34:00;;;;;;;1.83;1.73;;;;;24.00;96240.00;;;;8347938;28;20782;-66
2023/09/19 15:38:05;;;;;;;2.90;1.40;;;;;24.00;96229.00;;;;8351594;28;20280;-65
2023/09/19 15:42:11;;;;;;;6.78;2.45;;;;;24.00;96245.00;;;;8349129;28;20250;-65
2023/09/19 15:46:15;;;;;;;1.73;1.50;;;;;24.10;96238.00;;;;8350719;28;20692;-66
2023/09/19 15:50:19;;;;;;;2.65;1.50;;;;;24.20;96232.00;;;;8349524;28;20567;-67
2023/09/19 15:54:27;;;;;;;1.85;1.70;;;;;24.30;96222.00;;;;8347719;28;20204;-66
2023/09/19 15:58:31;;;;;;;1.60;1.50;;;;;24.30;96229.00;;;;8345350;28;20566;-66
2023/09/19 16:02:39;;;;;;;1.67;1.55;;;;;24.50;96222.00;;;;8345238;28;20235;-65
2023/09/19 16:06:43;;;;;;;1.52;1.40;;;;;24.50;96235.00;;;;8348156;28;20193;-66
2023/09/19 16:10:48;;;;;;;3.83;1.55;;;;;24.40;96229.00;;;;8348022;28;20225;-67
2023/09/19 16:14:53;;;;;;;1.40;1.40;;;;;24.30;96233.00;;;;8348006;28;20201;-66
2023/09/19 16:19:00;;;;;;;1.50;1.40;;;;;23.90;96232.00;;;;8348557;28;20299;-66
2023/09/19 16:23:07;;;;;;;1.48;1.38;;;;;23.60;96241.00;;;;8349986;28;20750;-66
2023/09/19 16:27:15;;;;;;;1.50;1.30;;;;;23.20;96234.00;;;;8348767;28;20229;-66
2023/09/19 16:31:23;;;;;;;2.35;1.30;;;;;22.80;96236.00;;;;8346523;28;20281;-66
2023/09/19 16:35:26;;;;;;;3.17;1.60;;;;;22.50;96228.00;;;;8346127;28;20258;-65
2023/09/19 16:39:33;;;;;;;2.28;1.60;;;;;22.20;96232.00;;;;8348548;28;20278;-66
2023/09/19 16:43:39;;;;;;;1.60;1.50;;;;;21.90;96232.00;;;;8346549;28;20896;-66
2023/09/19 16:47:43;;;;;;;1.77;1.67;;;;;21.70;96243.00;;;;8347124;28;20209;-65
2023/09/19 16:51:54;;;;;;;1.80;1.50;;;;;21.40;96232.00;;;;8343353;28;20243;-66
2023/09/19 16:56:03;;;;;;;4.88;1.80;;;;;21.20;96235.00;;;;8348824;28;20250;-65
2023/09/19 17:00:10;;;;;;;4.13;1.20;;;;;21.00;96232.00;;;;8349020;28;20207;-65
2023/09/19 17:04:15;;;;;;;1.98;1.88;;;;;20.70;96235.00;;;;8345111;28;20228;-66
2023/09/19 17:08:23;;;;;;;4.35;1.75;;;;;20.40;96229.00;;;;8347294;28;20562;-66
2023/09/19 17:12:28;;;;;;;4.03;1.60;;;;;20.00;96228.00;;;;8344186;28;20239;-65
2023/09/19 17:16:34;;;;;;;1.50;1.40;;;;;19.60;96236.00;;;;8342307;28;20631;-64
2023/09/19 17:20:42;;;;;;;2.55;1.50;;;;;19.20;96243.00;;;;8342938;28;20193;-65
2023/09/19 17:24:47;;;;;;;4.25;1.73;;;;;18.80;96243.00;;;;8343777;28;20230;-65
2023/09/19 17:28:53;;;;;;;4.80;1.70;;;;;18.50;96244.00;;;;8347138;28;20292;-65
2023/09/19 17:32:56;;;;;;;1.75;1.52;;;;;18.20;96245.00;;;;8342204;28;20224;-65
2023/09/19 17:37:00;;;;;;;1.80;1.70;;;;;17.90;96248.00;;;;8344232;28;20197;-65
2023/09/19 17:41:07;;;;;;;4.38;1.90;;;;;17.60;96241.00;;;;8337259;28;20728;-63
2023/09/19 17:45:15;;;;;;;2.13;1.73;;;;;17.20;96240.00;;;;8340986;28;20334;-60
2023/09/19 17:49:20;;;;;;;1.48;1.38;;;;;17.00;96245.00;;;;8343073;28;21020;-63
2023/09/19 17:53:24;;;;;;;6.20;1.60;;;;;16.80;96242.00;;;;8343764;28;20892;-63
2023/09/19 17:57:33;;;;;;;4.45;1.85;;;;;16.70;96245.00;;;;8344968;28;20229;-64
2023/09/19 18:01:38;;;;;;;4.25;3.15;;;;;16.60;96241.00;;;;8339102;28;20903;-64
2023/09/19 18:05:48;;;;;;;5.55;2.13;;;;;16.40;96252.00;;;;8340877;28;20255;-61
2023/09/19 18:09:52;;;;;;;1.95;1.73;;;;;16.20;96254.00;;;;8344058;28;20209;-64
2023/09/19 18:13:59;;;;;;;2.08;1.88;;;;;16.10;96256.00;;;;8340871;28;20312;-64
2023/09/19 18:18:07;;;;;;;2.85;1.67;;;;;15.90;96261.00;;;;8339694;28;20287;-69
2023/09/19 18:22:12;;;;;;;4.10;1.95;;;;;15.80;96270.00;;;;8338575;28;20197;-67
2023/09/19 18:26:15;;;;;;;2.42;2.20;;;;;15.70;96278.00;;;;8336301;28;20237;-68
2023/09/19 18:30:25;;;;;;;2.42;2.20;;;;;15.60;96276.00;;;;8336639;28;20207;-67
2023/09/19 18:34:31;;;;;;;3.08;2.10;;;;;15.60;96283.00;;;;8337547;28;20397;-69
2023/09/19 18:38:40;;;;;;;3.60;2.42;;;;;15.50;96281.00;;;;8337790;28;20259;-68
2023/09/19 18:42:43;;;;;;;2.40;2.08;;;;;15.40;96286.00;;;;8339451;28;20197;-66
2023/09/19 18:46:49;;;;;;;3.70;1.85;;;;;15.30;96277.00;;;;8338559;28;20242;-66
2023/09/19 18:50:55;;;;;;;3.60;1.90;;;;;15.20;96283.00;;;;8334544;28;20826;-66
2023/09/19 18:54:58;;;;;;;2.17;1.98;;;;;15.10;96280.00;;;;8339971;28;20615;-67
2023/09/19 18:59:02;;;;;;;4.47;1.88;;;;;14.90;96277.00;;;;8339092;28;20197;-66
2023/09/19 19:03:06;;;;;;;3.70;2.10;;;;;14.80;96281.00;;;;8337770;28;20224;-67
2023/09/19 19:07:21;;;;;;;2.70;1.77;;;;;14.70;96286.00;;;;8335278;28;20279;-67
2023/09/19 19:11:29;;;;;;;7.60;1.95;;;;;14.70;96292.00;;;;8339040;28;20204;-66
2023/09/19 19:15:35;;;;;;;2.63;2.05;;;;;14.60;96277.00;;;;8339500;28;20204;-67
2023/09/19 19:19:39;;;;;;;2.38;1.90;;;;;14.60;96286.00;;;;8337722;28;20767;-67
2023/09/19 19:23:43;;;;;;;2.60;1.90;;;;;14.50;96295.00;;;;8343316;28;20196;-66
2023/09/19 19:27:47;;;;;;;1.92;1.83;;;;;14.30;96297.00;;;;8340398;28;20284;-68
2023/09/19 19:31:52;;;;;;;2.75;2.45;;;;;14.40;96291.00;;;;8340533;28;20201;-69
2023/09/19 19:36:05;;;;;;;4.30;1.95;;;;;14.30;96290.00;;;;8342960;28;20201;-69
2023/09/19 19:40:16;;;;;;;5.20;2.10;;;;;14.30;96294.00;;;;8340388;28;20292;-69
2023/09/19 19:44:20;;;;;;;3.45;2.30;;;;;14.20;96294.00;;;;8343134;28;20229;-68
2023/09/19 19:48:25;;;;;;;4.53;2.10;;;;;14.20;96300.00;;;;8339354;28;20290;-69
2023/09/19 19:52:32;;;;;;;5.88;2.67;;;;;14.20;96305.00;;;;8350907;28;20193;-69
2023/09/19 19:56:38;;;;;;;4.93;2.17;;;;;14.10;96308.00;;;;8347240;28;20234;-69
2023/09/19 20:00:43;;;;;;;2.55;2.03;;;;;14.00;96308.00;;;;8345298;28;20543;-68
2023/09/19 20:04:49;;;;;;;3.30;2.20;;;;;14.00;96302.00;;;;8346923;28;20701;-68
2023/09/19 20:08:52;;;;;;;2.60;2.20;;;;;14.00;96308.00;;;;8345970;28;20906;-68
2023/09/19 20:13:00;;;;;;;3.25;2.25;;;;;14.00;96302.00;;;;8348375;28;20201;-69
2023/09/19 20:17:05;;;;;;;4.70;2.28;;;;;13.90;96304.00;;;;8345312;28;20188;-68
2023/09/19 20:21:13;;;;;;;3.53;2.30;;;;;13.90;96317.00;;;;8346612;28;20300;-69
2023/09/19 20:25:20;;;;;;;2.58;2.38;;;;;13.90;96314.00;;;;8347652;28;20706;-69
2023/09/19 20:29:27;;;;;;;4.57;2.20;;;;;13.80;96318.00;;;;8351174;28;20550;-69
2023/09/19 20:33:37;;;;;;;2.70;2.50;;;;;13.70;96323.00;;;;8345036;28;20548;-68
2023/09/19 20:37:41;;;;;;;3.88;2.50;;;;;13.60;96322.00;;;;8351270;28;20197;-68